Time;durP1;ratioP1;P1;durP2;ratioP2;P2;SDS_P1;SDS_P2;PMS_P1;PMS_P2;Temp;Humidity;BMP_temperature;BMP_pressure;BME280_temperature;BME280_humidity;BME280_pressure;Samples;Min_cycle;Max_cycle;Signal;HPM_P1;HPM_P2
2021/06/27 00:02:25;;;;;;;16.00;8.25;;;;;;;;;;5055951;28;20028;-46
2021/06/27 00:04:51;;;;;;;9.55;6.40;;;;;;;;;;5055892;28;20493;-46
2021/06/27 00:07:18;;;;;;;7.40;5.57;;;;;;;;;;5055805;28;20033;-46
2021/06/27 00:09:44;;;;;;;9.07;3.60;;;;;;;;;;5055715;28;20091;-44
2021/06/27 00:12:10;;;;;;;16.20;12.75;;;;;;;;;;5054293;28;20021;-44
2021/06/27 00:14:37;;;;;;;24.05;16.45;;;;;;;;;;5055347;28;20126;-46
2021/06/27 00:17:03;;;;;;;39.42;23.33;;;;;;;;;;5055617;28;20100;-47
2021/06/27 00:19:29;;;;;;;29.77;18.95;;;;;;;;;;5055643;28;20024;-45
2021/06/27 00:21:56;;;;;;;18.35;12.18;;;;;;;;;;5055464;28;20040;-48
2021/06/27 00:24:22;;;;;;;35.15;8.55;;;;;;;;;;5055431;28;20021;-46
2021/06/27 00:26:48;;;;;;;27.25;19.17;;;;;;;;;;5055334;28;20553;-48
2021/06/27 00:29:14;;;;;;;33.22;19.67;;;;;;;;;;5055338;28;20142;-47
2021/06/27 00:31:40;;;;;;;34.13;21.45;;;;;;;;;;5054420;28;20021;-46
2021/06/27 00:34:06;;;;;;;35.80;25.20;;;;;;;;;;5055382;28;20032;-46
2021/06/27 00:36:32;;;;;;;14.80;10.70;;;;;;;;;;5055376;28;20028;-45
2021/06/27 00:38:58;;;;;;;15.05;9.45;;;;;;;;;;5055509;28;20021;-46
2021/06/27 00:41:24;;;;;;;12.43;8.30;;;;;;;;;;5055149;28;20079;-45
2021/06/27 00:43:51;;;;;;;9.93;6.82;;;;;;;;;;5038087;28;20436;-47
2021/06/27 00:46:17;;;;;;;7.47;5.20;;;;;;;;;;5027955;28;20183;-47
2021/06/27 00:48:43;;;;;;;38.85;19.45;;;;;;;;;;5027831;28;20536;-46
2021/06/27 00:51:09;;;;;;;18.02;12.05;;;;;;;;;;5027589;28;20056;-46
2021/06/27 00:53:35;;;;;;;10.82;8.23;;;;;;;;;;5028074;28;20026;-46
2021/06/27 00:56:02;;;;;;;8.32;4.90;;;;;;;;;;5027584;28;20037;-46
2021/06/27 00:58:29;;;;;;;24.42;14.00;;;;;;;;;;5027865;28;20148;-45
2021/06/27 01:00:56;;;;;;;9.35;4.53;;;;;;;;;;5027626;28;20767;-46
2021/06/27 01:03:22;;;;;;;18.67;10.52;;;;;;;;;;5028044;28;20025;-47
2021/06/27 01:05:49;;;;;;;6.03;4.85;;;;;;;;;;5027336;28;20397;-47
2021/06/27 01:08:15;;;;;;;4.47;3.88;;;;;;;;;;5027780;28;20029;-45
2021/06/27 01:10:41;;;;;;;3.83;3.40;;;;;;;;;;5027361;28;20111;-47
2021/06/27 01:13:07;;;;;;;5.97;5.03;;;;;;;;;;5027220;28;20021;-45
2021/06/27 01:15:34;;;;;;;7.57;5.85;;;;;;;;;;5027663;28;20049;-44
2021/06/27 01:18:00;;;;;;;8.70;6.57;;;;;;;;;;5027080;28;20031;-45
2021/06/27 01:20:28;;;;;;;12.90;8.15;;;;;;;;;;5027722;28;20017;-46
2021/06/27 01:22:55;;;;;;;16.55;8.93;;;;;;;;;;5027062;28;20032;-47
2021/06/27 01:25:23;;;;;;;13.80;9.68;;;;;;;;;;5027289;28;20095;-46
2021/06/27 01:27:49;;;;;;;13.27;7.85;;;;;;;;;;5027140;28;20035;-44
2021/06/27 01:30:15;;;;;;;11.30;8.70;;;;;;;;;;5027264;28;20039;-44
2021/06/27 01:32:42;;;;;;;22.05;14.07;;;;;;;;;;5026691;28;20032;-45
2021/06/27 01:35:13;;;;;;;19.88;11.48;;;;;;;;;;5027077;28;20033;-46
2021/06/27 01:37:41;;;;;;;12.30;7.88;;;;;;;;;;5026987;28;20037;-46
2021/06/27 01:40:07;;;;;;;17.40;11.00;;;;;;;;;;5027468;28;20048;-45
2021/06/27 01:42:34;;;;;;;10.70;6.20;;;;;;;;;;5026132;28;20103;-45
2021/06/27 01:45:07;;;;;;;9.50;5.90;;;;;;;;;;5027042;28;20491;-46
2021/06/27 01:47:33;;;;;;;6.50;4.28;;;;;;;;;;5034178;28;20381;-45
2021/06/27 01:49:59;;;;;;;7.10;5.38;;;;;;;;;;5034094;28;20025;-45
2021/06/27 01:52:25;;;;;;;6.75;4.68;;;;;;;;;;5034182;28;20056;-48
2021/06/27 01:54:51;;;;;;;5.22;3.90;;;;;;;;;;5034223;28;20033;-45
2021/06/27 01:57:21;;;;;;;4.50;3.97;;;;;;;;;;5034245;28;20120;-44
2021/06/27 01:59:49;;;;;;;6.22;3.78;;;;;;;;;;5034094;28;20111;-44
2021/06/27 02:02:16;;;;;;;6.03;3.75;;;;;;;;;;5034100;28;20040;-45
2021/06/27 02:04:42;;;;;;;7.10;3.58;;;;;;;;;;5033803;28;20025;-45
2021/06/27 02:07:08;;;;;;;5.00;3.35;;;;;;;;;;5033711;28;20025;-48
2021/06/27 02:09:34;;;;;;;4.28;3.30;;;;;;;;;;5033668;28;20470;-45
2021/06/27 02:12:00;;;;;;;7.35;3.80;;;;;;;;;;5032322;28;20034;-45
2021/06/27 02:14:29;;;;;;;4.35;3.47;;;;;;;;;;5033257;28;20049;-47
2021/06/27 02:16:55;;;;;;;7.32;3.20;;;;;;;;;;5033583;28;20536;-45
2021/06/27 02:19:21;;;;;;;3.83;3.13;;;;;;;;;;5033688;28;20026;-46
2021/06/27 02:21:47;;;;;;;5.80;3.15;;;;;;;;;;5033537;28;20068;-46
2021/06/27 02:24:13;;;;;;;6.30;3.00;;;;;;;;;;5033583;28;20084;-45
2021/06/27 02:26:39;;;;;;;4.15;3.30;;;;;;;;;;5033334;28;20123;-47
2021/06/27 02:29:05;;;;;;;8.73;3.47;;;;;;;;;;5033583;28;20417;-45
2021/06/27 02:31:32;;;;;;;8.23;3.20;;;;;;;;;;5033676;28;20026;-46
2021/06/27 02:33:59;;;;;;;5.95;3.50;;;;;;;;;;5033495;28;20466;-47
2021/06/27 02:36:25;;;;;;;3.70;3.05;;;;;;;;;;5033425;28;20466;-44
2021/06/27 02:38:52;;;;;;;3.78;3.17;;;;;;;;;;5033302;28;20053;-45
2021/06/27 02:41:19;;;;;;;5.68;3.13;;;;;;;;;;5033240;28;20064;-44
2021/06/27 02:43:45;;;;;;;4.95;3.80;;;;;;;;;;5033095;28;20026;-47
2021/06/27 02:46:12;;;;;;;6.53;3.88;;;;;;;;;;5033349;28;20095;-45
2021/06/27 02:48:38;;;;;;;5.82;3.25;;;;;;;;;;5033250;28;20025;-45
2021/06/27 02:51:05;;;;;;;5.30;3.40;;;;;;;;;;5033523;28;20048;-44
2021/06/27 02:53:31;;;;;;;10.52;3.70;;;;;;;;;;5033429;28;20049;-45
2021/06/27 02:56:09;;;;;;;6.80;3.70;;;;;;;;;;5037274;28;20026;-44
2021/06/27 02:58:40;;;;;;;7.57;3.83;;;;;;;;;;5037132;28;20043;-45
2021/06/27 03:01:09;;;;;;;4.65;3.78;;;;;;;;;;5037456;28;20036;-44
2021/06/27 03:03:35;;;;;;;7.35;3.83;;;;;;;;;;5037291;28;20032;-44
2021/06/27 03:06:01;;;;;;;4.30;3.58;;;;;;;;;;5037064;28;20073;-45
2021/06/27 03:08:27;;;;;;;6.70;4.00;;;;;;;;;;5037036;28;20034;-45
2021/06/27 03:10:54;;;;;;;7.15;4.07;;;;;;;;;;5037106;28;20033;-44
2021/06/27 03:13:20;;;;;;;7.88;3.85;;;;;;;;;;5036835;28;20029;-44
2021/06/27 03:15:48;;;;;;;5.72;3.72;;;;;;;;;;5037140;28;20044;-45
2021/06/27 03:18:14;;;;;;;6.15;3.70;;;;;;;;;;5036877;28;20052;-44
2021/06/27 03:20:40;;;;;;;6.28;3.45;;;;;;;;;;5036806;28;20025;-45
2021/06/27 03:23:07;;;;;;;5.13;3.78;;;;;;;;;;5036783;28;20531;-45
2021/06/27 03:25:35;;;;;;;9.88;4.13;;;;;;;;;;5037073;28;20394;-45
2021/06/27 03:28:01;;;;;;;6.22;3.85;;;;;;;;;;5036618;28;20057;-45
2021/06/27 03:30:27;;;;;;;7.78;3.70;;;;;;;;;;5036856;28;20520;-44
2021/06/27 03:32:53;;;;;;;5.82;3.50;;;;;;;;;;5036543;28;20497;-45
2021/06/27 03:35:19;;;;;;;5.90;4.05;;;;;;;;;;5035312;28;20036;-45
2021/06/27 03:38:03;;;;;;;4.97;3.90;;;;;;;;;;5036675;28;20025;-46
2021/06/27 03:40:30;;;;;;;6.30;4.00;;;;;;;;;;5036457;28;20442;-45
2021/06/27 03:42:58;;;;;;;7.00;4.05;;;;;;;;;;5035037;28;20032;-44
2021/06/27 03:45:25;;;;;;;5.05;4.15;;;;;;;;;;5036455;28;20041;-45
2021/06/27 03:47:51;;;;;;;8.57;4.10;;;;;;;;;;5036353;28;20026;-46
2021/06/27 03:50:18;;;;;;;7.38;4.50;;;;;;;;;;5036383;28;20083;-45
2021/06/27 03:52:45;;;;;;;6.88;4.07;;;;;;;;;;5036331;28;20033;-45
2021/06/27 03:55:11;;;;;;;10.45;3.50;;;;;;;;;;5036417;28;20033;-44
2021/06/27 03:57:37;;;;;;;7.32;4.75;;;;;;;;;;5036070;28;20025;-45
2021/06/27 04:00:05;;;;;;;14.55;7.60;;;;;;;;;;5036169;28;20044;-45
2021/06/27 04:02:31;;;;;;;10.73;7.40;;;;;;;;;;5036153;28;20033;-44
2021/06/27 04:04:57;;;;;;;6.85;5.38;;;;;;;;;;5035294;28;20029;-45
2021/06/27 04:07:23;;;;;;;5.45;4.75;;;;;;;;;;5035283;28;20545;-44
2021/06/27 04:09:49;;;;;;;8.88;4.95;;;;;;;;;;5036138;28;20428;-44
2021/06/27 04:12:15;;;;;;;5.30;4.40;;;;;;;;;;5036056;28;20056;-44
2021/06/27 04:14:42;;;;;;;5.22;3.95;;;;;;;;;;5035628;28;20055;-44
2021/06/27 04:17:09;;;;;;;7.25;4.75;;;;;;;;;;5035743;28;20040;-44
2021/06/27 04:19:35;;;;;;;6.32;4.68;;;;;;;;;;5035803;28;20032;-44
2021/06/27 04:22:01;;;;;;;9.48;4.80;;;;;;;;;;5035740;28;20026;-44
2021/06/27 04:24:27;;;;;;;11.15;4.68;;;;;;;;;;5035825;28;20030;-44
2021/06/27 04:26:53;;;;;;;6.70;4.82;;;;;;;;;;5035855;28;20030;-45
2021/06/27 04:29:19;;;;;;;10.18;4.75;;;;;;;;;;5035704;28;20079;-44
2021/06/27 04:31:46;;;;;;;6.38;4.90;;;;;;;;;;5035599;28;20025;-44
2021/06/27 04:34:12;;;;;;;7.22;4.90;;;;;;;;;;5035574;28;20503;-45
2021/06/27 04:36:39;;;;;;;6.22;4.40;;;;;;;;;;5035518;28;20363;-45
2021/06/27 04:39:06;;;;;;;7.10;5.10;;;;;;;;;;5035545;28;20026;-44
2021/06/27 04:41:34;;;;;;;7.50;5.20;;;;;;;;;;5035483;28;20021;-44
2021/06/27 04:44:00;;;;;;;9.35;6.70;;;;;;;;;;5035201;28;20029;-45
2021/06/27 04:46:26;;;;;;;6.55;4.55;;;;;;;;;;5035377;28;20037;-45
2021/06/27 04:48:52;;;;;;;5.55;4.60;;;;;;;;;;5035296;28;20466;-44
2021/06/27 04:51:18;;;;;;;7.95;4.93;;;;;;;;;;5035144;28;20035;-44
2021/06/27 04:53:45;;;;;;;6.65;4.10;;;;;;;;;;5035295;28;20029;-44
2021/06/27 04:56:11;;;;;;;7.88;3.95;;;;;;;;;;5035420;28;20025;-44
2021/06/27 04:58:37;;;;;;;8.18;4.50;;;;;;;;;;5035043;28;20021;-45
2021/06/27 05:01:04;;;;;;;8.95;4.68;;;;;;;;;;5035308;28;20033;-43
2021/06/27 05:03:30;;;;;;;6.53;4.60;;;;;;;;;;5035136;28;20032;-44
2021/06/27 05:05:56;;;;;;;8.88;4.53;;;;;;;;;;5034943;28;20037;-44
2021/06/27 05:08:22;;;;;;;8.18;5.75;;;;;;;;;;5034910;28;20032;-44
2021/06/27 05:10:48;;;;;;;13.25;8.68;;;;;;;;;;5034811;28;20112;-44
2021/06/27 05:13:14;;;;;;;12.07;8.48;;;;;;;;;;5034613;28;20112;-45
2021/06/27 05:15:40;;;;;;;10.38;7.72;;;;;;;;;;5034458;28;20567;-44
2021/06/27 05:18:06;;;;;;;10.98;7.35;;;;;;;;;;5034259;28;20022;-44
2021/06/27 05:20:32;;;;;;;7.93;5.55;;;;;;;;;;5034855;28;20037;-44
2021/06/27 05:22:58;;;;;;;7.32;5.25;;;;;;;;;;5034541;28;20021;-44
2021/06/27 05:25:24;;;;;;;8.68;5.00;;;;;;;;;;5034356;28;20042;-45
2021/06/27 05:27:51;;;;;;;7.05;4.97;;;;;;;;;;5034766;28;20025;-44
2021/06/27 05:30:17;;;;;;;6.38;4.53;;;;;;;;;;5034515;28;20030;-44
2021/06/27 05:32:43;;;;;;;9.13;4.97;;;;;;;;;;5034742;28;20041;-44
2021/06/27 05:35:09;;;;;;;9.35;4.32;;;;;;;;;;5034435;28;20045;-44
2021/06/27 05:37:35;;;;;;;8.73;4.88;;;;;;;;;;5034191;28;20398;-44
2021/06/27 05:40:02;;;;;;;11.50;5.13;;;;;;;;;;5034439;28;20171;-44
2021/06/27 05:42:28;;;;;;;10.57;6.25;;;;;;;;;;5034143;28;20022;-45
2021/06/27 05:44:54;;;;;;;9.18;5.53;;;;;;;;;;5034064;28;20048;-44
2021/06/27 05:47:20;;;;;;;7.65;5.03;;;;;;;;;;5034317;28;20029;-44
2021/06/27 05:49:46;;;;;;;9.43;5.63;;;;;;;;;;5034309;28;20101;-45
2021/06/27 05:52:12;;;;;;;6.50;5.20;;;;;;;;;;5034010;28;20482;-46
2021/06/27 05:54:38;;;;;;;65.57;42.17;;;;;;;;;;5033951;28;20112;-45
2021/06/27 05:57:04;;;;;;;36.97;24.92;;;;;;;;;;5034115;28;20033;-45
2021/06/27 05:59:31;;;;;;;22.23;13.88;;;;;;;;;;5033950;28;20025;-45
2021/06/27 06:01:57;;;;;;;11.65;7.47;;;;;;;;;;5034096;28;20030;-47
2021/06/27 06:04:23;;;;;;;9.23;6.28;;;;;;;;;;5034315;28;20100;-46
2021/06/27 06:06:49;;;;;;;8.38;5.18;;;;;;;;;;5034062;28;20536;-46
2021/06/27 06:09:15;;;;;;;7.03;4.50;;;;;;;;;;5034599;28;20030;-46
2021/06/27 06:11:41;;;;;;;7.53;5.03;;;;;;;;;;5033791;28;20026;-44
2021/06/27 06:14:07;;;;;;;6.45;4.00;;;;;;;;;;5033396;28;20046;-44
2021/06/27 06:16:33;;;;;;;7.20;4.47;;;;;;;;;;5033643;28;20382;-45
2021/06/27 06:19:00;;;;;;;5.32;4.57;;;;;;;;;;5033651;28;20078;-45
2021/06/27 06:21:26;;;;;;;7.28;4.30;;;;;;;;;;5033546;28;20426;-45
2021/06/27 06:23:52;;;;;;;7.63;4.05;;;;;;;;;;5033479;28;20040;-46
2021/06/27 06:26:18;;;;;;;4.80;3.97;;;;;;;;;;5033487;28;20033;-43
2021/06/27 06:28:44;;;;;;;4.78;3.38;;;;;;;;;;5032603;28;20022;-45
2021/06/27 06:31:11;;;;;;;6.15;4.00;;;;;;;;;;5032380;28;20033;-45
2021/06/27 06:33:37;;;;;;;4.57;3.90;;;;;;;;;;5033211;28;20067;-43
2021/06/27 06:36:03;;;;;;;7.72;4.53;;;;;;;;;;5033396;28;20029;-44
2021/06/27 06:38:29;;;;;;;6.43;4.22;;;;;;;;;;5033240;28;20029;-43
2021/06/27 06:40:55;;;;;;;5.43;4.10;;;;;;;;;;5033546;28;20030;-42
2021/06/27 06:43:21;;;;;;;7.00;4.07;;;;;;;;;;5031816;28;20504;-45
2021/06/27 06:45:48;;;;;;;4.40;4.00;;;;;;;;;;5033222;28;20068;-44
2021/06/27 06:48:14;;;;;;;7.78;3.63;;;;;;;;;;5033345;28;20060;-43
2021/06/27 06:50:40;;;;;;;4.60;3.70;;;;;;;;;;5033279;28;20484;-44
2021/06/27 06:53:06;;;;;;;6.13;3.78;;;;;;;;;;5033057;28;20021;-43
2021/06/27 06:55:32;;;;;;;6.80;3.78;;;;;;;;;;5033397;28;20030;-44
2021/06/27 06:57:58;;;;;;;5.03;3.47;;;;;;;;;;5033217;28;20037;-43
2021/06/27 07:00:24;;;;;;;5.70;3.50;;;;;;;;;;5033213;28;20049;-43
2021/06/27 07:02:50;;;;;;;7.25;3.80;;;;;;;;;;5033196;28;20044;-43
2021/06/27 07:05:16;;;;;;;5.60;3.55;;;;;;;;;;5033175;28;20057;-44
2021/06/27 07:07:45;;;;;;;4.22;3.10;;;;;;;;;;5033064;28;20436;-44
2021/06/27 07:10:11;;;;;;;3.80;3.03;;;;;;;;;;5032963;28;20032;-43
2021/06/27 07:12:37;;;;;;;5.53;3.40;;;;;;;;;;5033098;28;20041;-43
2021/06/27 07:15:04;;;;;;;3.47;3.10;;;;;;;;;;5032874;28;20057;-43
2021/06/27 07:17:30;;;;;;;6.32;3.90;;;;;;;;;;5033128;28;20100;-43
2021/06/27 07:19:56;;;;;;;4.82;2.95;;;;;;;;;;5032771;28;20109;-44
2021/06/27 07:22:23;;;;;;;13.68;10.55;;;;;;;;;;5032914;28;20036;-43
2021/06/27 07:24:50;;;;;;;8.60;4.60;;;;;;;;;;5032829;28;20041;-45
2021/06/27 07:27:16;;;;;;;8.20;6.15;;;;;;;;;;5032844;28;20037;-45
2021/06/27 07:29:44;;;;;;;9.27;7.45;;;;;;;;;;5032769;28;20079;-45
2021/06/27 07:32:12;;;;;;;19.88;15.20;;;;;;;;;;5032784;28;20018;-45
2021/06/27 07:34:38;;;;;;;10.30;6.60;;;;;;;;;;5032885;28;20390;-45
2021/06/27 07:37:04;;;;;;;12.77;10.13;;;;;;;;;;5032857;28;20072;-45
2021/06/27 07:39:31;;;;;;;10.73;6.70;;;;;;;;;;5032866;28;20139;-46
2021/06/27 07:41:57;;;;;;;13.43;9.70;;;;;;;;;;5036526;28;20022;-46
2021/06/27 07:44:23;;;;;;;7.03;6.15;;;;;;;;;;5036251;28;20033;-46
2021/06/27 07:46:49;;;;;;;4.55;3.58;;;;;;;;;;5035014;28;20056;-44
2021/06/27 07:49:15;;;;;;;4.45;3.72;;;;;;;;;;5036436;28;20474;-45
2021/06/27 07:51:41;;;;;;;4.85;2.45;;;;;;;;;;5036392;28;20117;-45
2021/06/27 07:54:07;;;;;;;2.65;2.40;;;;;;;;;;5036089;28;20083;-45
2021/06/27 07:56:33;;;;;;;7.50;3.45;;;;;;;;;;5036275;28;20389;-46
2021/06/27 07:58:59;;;;;;;3.05;2.75;;;;;;;;;;5036401;28;20029;-46
2021/06/27 08:01:25;;;;;;;4.00;3.03;;;;;;;;;;5036016;28;20033;-45
2021/06/27 08:03:51;;;;;;;4.45;2.72;;;;;;;;;;5036078;28;20049;-45
2021/06/27 08:06:18;;;;;;;3.40;2.83;;;;;;;;;;5036003;28;20044;-46
2021/06/27 08:08:44;;;;;;;6.53;2.83;;;;;;;;;;5035783;28;20022;-45
2021/06/27 08:11:10;;;;;;;3.30;2.53;;;;;;;;;;5036029;28;20025;-46
2021/06/27 08:13:37;;;;;;;5.00;2.92;;;;;;;;;;5035690;28;20371;-46
2021/06/27 08:16:03;;;;;;;7.35;2.90;;;;;;;;;;5035647;28;20037;-46
2021/06/27 08:18:29;;;;;;;3.63;3.10;;;;;;;;;;5035706;28;20108;-46
2021/06/27 08:20:55;;;;;;;5.80;3.08;;;;;;;;;;5035699;28;20041;-46
2021/06/27 08:23:21;;;;;;;3.22;2.58;;;;;;;;;;5035886;28;20034;-46
2021/06/27 08:25:47;;;;;;;4.15;2.67;;;;;;;;;;5035403;28;20125;-46
2021/06/27 08:28:13;;;;;;;6.45;3.22;;;;;;;;;;5035787;28;20026;-46
2021/06/27 08:30:39;;;;;;;6.07;3.28;;;;;;;;;;5035518;28;20045;-46
2021/06/27 08:33:05;;;;;;;12.73;8.15;;;;;;;;;;5035645;28;20025;-47
2021/06/27 08:35:32;;;;;;;8.88;6.60;;;;;;;;;;5035612;28;20036;-46
2021/06/27 08:37:58;;;;;;;46.15;28.90;;;;;;;;;;5035427;28;20104;-46
2021/06/27 08:40:24;;;;;;;29.17;18.63;;;;;;;;;;5035300;28;20087;-46
2021/06/27 08:42:51;;;;;;;10.18;6.63;;;;;;;;;;5035493;28;20021;-46
2021/06/27 08:45:18;;;;;;;5.55;3.47;;;;;;;;;;5035286;28;20037;-45
2021/06/27 08:47:44;;;;;;;12.90;8.15;;;;;;;;;;5035203;28;20021;-46
2021/06/27 08:50:12;;;;;;;10.70;4.63;;;;;;;;;;5035248;28;20032;-46
2021/06/27 08:52:38;;;;;;;30.83;16.63;;;;;;;;;;5034393;28;20032;-45
2021/06/27 08:55:05;;;;;;;10.73;6.60;;;;;;;;;;5035203;28;20029;-45
2021/06/27 08:57:31;;;;;;;3.42;2.10;;;;;;;;;;5035077;28;20017;-47
2021/06/27 09:00:00;;;;;;;16.75;8.85;;;;;;;;;;5035016;28;20018;-46
2021/06/27 09:02:27;;;;;;;23.55;15.57;;;;;;;;;;5034892;28;20048;-46
2021/06/27 09:04:53;;;;;;;21.38;10.50;;;;;;;;;;5034635;28;20044;-47
2021/06/27 09:07:38;;;;;;;6.78;4.07;;;;;;;;;;5034724;28;20440;-47
2021/06/27 09:10:06;;;;;;;3.22;2.45;;;;;;;;;;5034401;28;20025;-47
2021/06/27 09:12:45;;;;;;;10.15;6.28;;;;;;;;;;5044283;28;20477;-47
2021/06/27 09:15:12;;;;;;;19.55;7.68;;;;;;;;;;5053065;28;20052;-47
2021/06/27 09:17:42;;;;;;;51.05;31.05;;;;;;;;;;5050747;28;20025;-47
2021/06/27 09:20:09;;;;;;;10.25;6.85;;;;;;;;;;5053367;28;20083;-46
2021/06/27 09:22:37;;;;;;;11.55;6.50;;;;;;;;;;5053714;28;20025;-46
2021/06/27 09:25:14;;;;;;;29.05;20.27;;;;;;;;;;5053810;28;20025;-47
2021/06/27 09:27:40;;;;;;;62.30;38.10;;;;;;;;;;5050686;28;20033;-47
2021/06/27 09:30:17;;;;;;;21.90;15.70;;;;;;;;;;5053253;28;20036;-48
2021/06/27 09:32:52;;;;;;;38.85;25.63;;;;;;;;;;5051062;28;20374;-45
2021/06/27 09:35:36;;;;;;;8.88;6.00;;;;;;;;;;5053118;28;20091;-47
2021/06/27 09:38:21;;;;;;;1.80;1.70;;;;;;;;;;5051651;28;20021;-45
2021/06/27 09:40:49;;;;;;;3.63;2.85;;;;;;;;;;5052211;28;20028;-47
2021/06/27 09:43:15;;;;;;;6.95;4.40;;;;;;;;;;5053239;28;20481;-46
2021/06/27 09:45:45;;;;;;;5.80;3.47;;;;;;;;;;5053448;28;20091;-45
2021/06/27 09:48:11;;;;;;;3.40;2.67;;;;;;;;;;5053747;28;20094;-44
2021/06/27 09:50:38;;;;;;;4.82;4.00;;;;;;;;;;5053368;28;20024;-43
2021/06/27 09:53:04;;;;;;;5.70;2.97;;;;;;;;;;5053573;28;20024;-45
2021/06/27 09:55:30;;;;;;;2.88;2.05;;;;;;;;;;5053295;28;20068;-44
2021/06/27 09:58:15;;;;;;;5.53;4.70;;;;;;;;;;5053002;28;20021;-45
2021/06/27 10:00:41;;;;;;;2.10;1.60;;;;;;;;;;5051007;28;20021;-45
2021/06/27 10:03:09;;;;;;;4.93;2.85;;;;;;;;;;5053265;28;20028;-44
2021/06/27 10:05:35;;;;;;;13.23;4.45;;;;;;;;;;5053171;28;20025;-44
2021/06/27 10:08:01;;;;;;;14.00;7.82;;;;;;;;;;5053284;28;20162;-45
2021/06/27 10:10:27;;;;;;;3.42;1.60;;;;;;;;;;5053240;28;20028;-44
2021/06/27 10:12:54;;;;;;;2.17;1.75;;;;;;;;;;5052864;28;20033;-43
2021/06/27 10:15:20;;;;;;;5.60;3.22;;;;;;;;;;5052850;28;20401;-44
2021/06/27 10:17:46;;;;;;;13.02;6.95;;;;;;;;;;5052559;28;20436;-43
2021/06/27 10:20:13;;;;;;;4.63;2.58;;;;;;;;;;5052651;28;20021;-44
2021/06/27 10:22:40;;;;;;;11.15;6.95;;;;;;;;;;5051045;28;20036;-44
2021/06/27 10:25:08;;;;;;;3.92;2.85;;;;;;;;;;5052858;28;20106;-44
2021/06/27 10:27:34;;;;;;;2.38;2.15;;;;;;;;;;5053241;28;20075;-45
2021/06/27 10:30:01;;;;;;;4.50;3.15;;;;;;;;;;5053313;28;20043;-44
2021/06/27 10:32:28;;;;;;;6.53;2.28;;;;;;;;;;5053396;28;20036;-43
2021/06/27 10:34:55;;;;;;;7.75;3.50;;;;;;;;;;5053229;28;20104;-45
2021/06/27 10:37:27;;;;;;;8.32;5.97;;;;;;;;;;5052372;28;20029;-45
2021/06/27 10:40:00;;;;;;;13.55;7.90;;;;;;;;;;5052765;28;20070;-44
2021/06/27 10:42:44;;;;;;;16.02;8.43;;;;;;;;;;5052540;28;20491;-43
2021/06/27 10:45:11;;;;;;;15.60;9.25;;;;;;;;;;5050286;28;20021;-45
2021/06/27 10:47:37;;;;;;;7.97;4.10;;;;;;;;;;5052569;28;20117;-45
2021/06/27 10:50:08;;;;;;;11.05;5.15;;;;;;;;;;5052622;28;20462;-44
2021/06/27 10:52:53;;;;;;;24.30;15.23;;;;;;;;;;5051500;28;20059;-44
2021/06/27 10:55:19;;;;;;;8.13;4.70;;;;;;;;;;5050798;28;20394;-44
2021/06/27 10:57:52;;;;;;;2.78;1.92;;;;;;;;;;5052231;28;20021;-43
2021/06/27 11:00:18;;;;;;;3.33;2.00;;;;;;;;;;5052491;28;20082;-43
2021/06/27 11:02:44;;;;;;;26.38;17.67;;;;;;;;;;5052451;28;20131;-43
2021/06/27 11:05:29;;;;;;;21.67;16.92;;;;;;;;;;5052358;28;20014;-43
2021/06/27 11:07:56;;;;;;;9.55;7.45;;;;;;;;;;5051110;28;20029;-44
2021/06/27 11:10:22;;;;;;;10.65;7.93;;;;;;;;;;5052450;28;20028;-45
2021/06/27 11:13:01;;;;;;;21.08;14.13;;;;;;;;;;5051576;28;20037;-45
2021/06/27 11:15:29;;;;;;;21.58;14.25;;;;;;;;;;5052120;28;20037;-43
2021/06/27 11:17:59;;;;;;;23.02;14.80;;;;;;;;;;5053365;28;20051;-43
2021/06/27 11:20:27;;;;;;;8.88;5.68;;;;;;;;;;5056298;28;20036;-42
2021/06/27 11:22:55;;;;;;;59.17;36.60;;;;;;;;;;5076578;28;20059;-44
2021/06/27 11:25:35;;;;;;;4.28;2.58;;;;;;;;;;5073368;28;20465;-43
2021/06/27 11:28:19;;;;;;;3.78;2.20;;;;;;;;;;5030032;28;20226;-44
2021/06/27 11:30:45;;;;;;;51.88;35.55;;;;;;;;;;5044683;28;20040;-43
2021/06/27 11:33:22;;;;;;;44.17;28.65;;;;;;;;;;5029519;28;20112;-42
2021/06/27 11:35:50;;;;;;;5.55;3.70;;;;;;;;;;5029293;28;20136;-42
2021/06/27 11:38:34;;;;;;;5.65;4.45;;;;;;;;;;5029081;28;20118;-42
2021/06/27 11:41:03;;;;;;;15.57;5.75;;;;;;;;;;5029311;28;20411;-42
2021/06/27 11:43:47;;;;;;;27.90;18.65;;;;;;;;;;5029007;28;20071;-42
2021/06/27 11:46:34;;;;;;;5.43;2.85;;;;;;;;;;5029126;28;20037;-42
2021/06/27 11:49:07;;;;;;;1.60;1.40;;;;;;;;;;5028197;28;20043;-43
2021/06/27 11:51:37;;;;;;;7.07;4.90;;;;;;;;;;5027945;28;20577;-43
2021/06/27 11:54:04;;;;;;;19.60;12.63;;;;;;;;;;5027324;28;20045;-43
2021/06/27 11:56:51;;;;;;;6.35;4.10;;;;;;;;;;5028710;28;20374;-43
2021/06/27 11:59:17;;;;;;;170.00;108.40;;;;;;;;;;5017231;28;21229;-43
2021/06/27 12:01:43;;;;;;;28.23;19.13;;;;;;;;;;5028211;28;20091;-43
2021/06/27 12:04:09;;;;;;;3.70;2.60;;;;;;;;;;5028263;28;20021;-43
2021/06/27 12:06:37;;;;;;;10.02;3.20;;;;;;;;;;5027990;28;20052;-43
2021/06/27 12:09:04;;;;;;;38.90;19.67;;;;;;;;;;5028412;28;20049;-43
2021/06/27 12:11:30;;;;;;;12.95;8.70;;;;;;;;;;5028160;28;20568;-43
2021/06/27 12:13:57;;;;;;;4.82;2.63;;;;;;;;;;5027553;28;20118;-44
2021/06/27 12:16:32;;;;;;;2.60;1.70;;;;;;;;;;5028172;28;20814;-44
2021/06/27 12:18:59;;;;;;;9.82;2.88;;;;;;;;;;5028285;28;20033;-43
2021/06/27 12:21:27;;;;;;;30.65;16.42;;;;;;;;;;5027650;28;20079;-43
2021/06/27 12:23:56;;;;;;;2.05;1.80;;;;;;;;;;5028122;28;20923;-43
2021/06/27 12:26:23;;;;;;;6.80;2.63;;;;;;;;;;5026989;28;20076;-44
2021/06/27 12:28:50;;;;;;;16.85;2.60;;;;;;;;;;5028505;28;20032;-44
2021/06/27 12:31:23;;;;;;;9.45;5.97;;;;;;;;;;5028042;28;20021;-43
2021/06/27 12:33:51;;;;;;;5.55;3.88;;;;;;;;;;5028221;28;20091;-43
2021/06/27 12:36:22;;;;;;;14.82;7.75;;;;;;;;;;5028420;28;20036;-43
2021/06/27 12:38:51;;;;;;;8.13;3.70;;;;;;;;;;5028701;28;20029;-43
2021/06/27 12:41:21;;;;;;;14.25;2.92;;;;;;;;;;5028042;28;20078;-44
2021/06/27 12:43:54;;;;;;;9.40;3.10;;;;;;;;;;5028248;28;20490;-44
2021/06/27 12:46:25;;;;;;;8.13;4.53;;;;;;;;;;5027811;28;20051;-44
2021/06/27 12:48:51;;;;;;;11.63;7.38;;;;;;;;;;5028105;28;20017;-44
2021/06/27 12:51:26;;;;;;;30.27;16.13;;;;;;;;;;5027766;28;20590;-43
2021/06/27 12:53:56;;;;;;;51.15;33.60;;;;;;;;;;5027660;28;20528;-43
2021/06/27 12:56:22;;;;;;;27.75;15.23;;;;;;;;;;5027380;28;20014;-43
2021/06/27 12:58:56;;;;;;;19.52;11.82;;;;;;;;;;5027780;28;20558;-43
2021/06/27 13:01:22;;;;;;;48.72;28.52;;;;;;;;;;5027981;28;20115;-43
2021/06/27 13:03:58;;;;;;;17.60;7.78;;;;;;;;;;5027403;28;20032;-43
2021/06/27 13:06:25;;;;;;;50.67;22.67;;;;;;;;;;5028104;28;20592;-44
2021/06/27 13:08:51;;;;;;;87.35;13.55;;;;;;;;;;5027643;28;20035;-50
2021/06/27 13:11:17;;;;;;;107.25;34.65;;;;;;;;;;5027192;28;20020;-44
2021/06/27 13:13:43;;;;;;;22.83;12.32;;;;;;;;;;5026732;28;20092;-43
2021/06/27 13:16:12;;;;;;;71.40;20.90;;;;;;;;;;5027485;28;20738;-43
2021/06/27 13:18:38;;;;;;;128.50;35.05;;;;;;;;;;5027503;28;20025;-44
2021/06/27 13:21:04;;;;;;;65.10;14.13;;;;;;;;;;5027663;28;20439;-43
2021/06/27 13:23:32;;;;;;;9.10;4.93;;;;;;;;;;5026995;28;20021;-43
2021/06/27 13:26:07;;;;;;;17.27;8.23;;;;;;;;;;5027495;28;20025;-43
2021/06/27 13:28:34;;;;;;;16.75;7.68;;;;;;;;;;5027405;28;20029;-44
2021/06/27 13:31:04;;;;;;;19.52;8.02;;;;;;;;;;5026858;28;20093;-44
2021/06/27 13:33:44;;;;;;;17.20;10.55;;;;;;;;;;5027405;28;20044;-44
2021/06/27 13:36:10;;;;;;;;;;;;;;;;;;5027340;28;20028;-43
2021/06/27 13:38:45;;;;;;;79.20;43.47;;;;;;;;;;5026772;28;19909;-43
2021/06/27 13:41:11;;;;;;;119.90;67.50;;;;;;;;;;5026704;28;20082;-43
2021/06/27 13:43:38;;;;;;;31.92;22.08;;;;;;;;;;5026769;28;20041;-44
2021/06/27 13:46:05;;;;;;;5.75;3.83;;;;;;;;;;5026773;28;20098;-43
2021/06/27 13:48:31;;;;;;;13.43;8.73;;;;;;;;;;5026977;28;20024;-43
2021/06/27 13:50:57;;;;;;;34.38;24.05;;;;;;;;;;5027237;28;20025;-42
2021/06/27 13:53:23;;;;;;;25.15;17.15;;;;;;;;;;5026791;28;20021;-43
2021/06/27 13:55:49;;;;;;;65.85;45.45;;;;;;;;;;5026723;28;20320;-42
2021/06/27 13:58:16;;;;;;;77.53;49.40;;;;;;;;;;5026947;28;20020;-42
2021/06/27 14:00:42;;;;;;;48.40;30.42;;;;;;;;;;5026244;28;20120;-43
2021/06/27 14:03:08;;;;;;;39.72;26.98;;;;;;;;;;5026622;28;20028;-44
2021/06/27 14:05:34;;;;;;;15.85;11.25;;;;;;;;;;5026412;28;20036;-44
2021/06/27 14:08:01;;;;;;;27.88;9.88;;;;;;;;;;5041734;28;20037;-42
2021/06/27 14:10:28;;;;;;;56.85;37.95;;;;;;;;;;5026386;28;20028;-43
2021/06/27 14:12:54;;;;;;;43.67;28.73;;;;;;;;;;5026144;28;20025;-43
2021/06/27 14:15:21;;;;;;;39.20;25.75;;;;;;;;;;5026465;28;20040;-42
2021/06/27 14:17:52;;;;;;;9.02;5.15;;;;;;;;;;5026000;28;20489;-43
2021/06/27 14:20:19;;;;;;;17.35;10.23;;;;;;;;;;5026473;28;20472;-43
2021/06/27 14:22:45;;;;;;;14.07;7.38;;;;;;;;;;5026221;28;21188;-44
2021/06/27 14:25:11;;;;;;;11.15;2.65;;;;;;;;;;5026606;28;20029;-43
2021/06/27 14:27:38;;;;;;;14.43;3.97;;;;;;;;;;5025874;28;20646;-42
2021/06/27 14:30:05;;;;;;;7.75;3.47;;;;;;;;;;5026760;28;20465;-44
2021/06/27 14:32:32;;;;;;;2.75;1.80;;;;;;;;;;5026167;28;20021;-44
2021/06/27 14:34:58;;;;;;;28.55;18.83;;;;;;;;;;5026435;28;20550;-44
2021/06/27 14:37:24;;;;;;;111.38;77.90;;;;;;;;;;5025821;28;20036;-44
2021/06/27 14:39:50;;;;;;;49.08;34.42;;;;;;;;;;5026339;28;20136;-43